»·PEaware :: N732SG KLAX-KSAN

N732SG :: KLAX-KSAN

FLIGHT INFORMATION

Flight Status: Arrived
Operator: Privately registered:
United States
More flights under this callsign
Pilot: Scott G. (88)
Aircraft: CESSNA 172 SKYHAWK
(C172)
More flights by this aircraft type
Origin: KLAX Los Angeles Intl
United States
Destination: KSAN San Diego Intl-Lindbergh
United States
More flights between these airports :: More routes between these airports
Route: +
File this flight plan on PilotEdge
Remarks: CAT 11 attempt
Altitude:
(Current/Filed)
7,500ft
Speed:
(Current/Filed)
110kts
Departed: 23-Mar-17 09:42 AM
Arrived: 23-Mar-17 10:40 AM
Distance/Time
Traveled:
95nm/0:58
Distance/Time
To Go:
Arrived

Flight Plot

Page will automatically refresh every two minutes.


Map Options




Map Legend


Flown Route
Filed Route
Departure Airport
Arrival Airport
Navaid (VOR, NDB)
Fix

Horizontal Profiles

Position Reports

Time Latitude Longitude Heading Altitude Ground
Speed
23-Mar-17 09:42 33.902930 -118.498616 149 1495ft 127kts
23-Mar-17 09:43 33.875454 -118.472508 140 1491ft 126kts
23-Mar-17 09:44 33.848324 -118.445471 139 1491ft 126kts
23-Mar-17 09:45 33.821783 -118.418339 140 1489ft 125kts
23-Mar-17 09:46 33.792870 -118.400029 169 1698ft 107kts
23-Mar-17 09:47 33.770314 -118.375984 139 2363ft 111kts
23-Mar-17 09:48 33.746224 -118.354565 145 3109ft 100kts
23-Mar-17 09:49 33.726559 -118.330078 127 3751ft 106kts
23-Mar-17 09:50 33.707470 -118.300555 128 4254ft 116kts
23-Mar-17 09:51 33.690840 -118.275243 127 4741ft 113kts
23-Mar-17 09:52 33.673164 -118.248468 127 5282ft 110kts
23-Mar-17 09:53 33.654083 -118.219601 126 5748ft 118kts
23-Mar-17 09:54 33.632230 -118.186625 126 5586ft 130kts
23-Mar-17 09:55 33.609911 -118.152947 126 5453ft 121kts
23-Mar-17 09:56 33.590326 -118.123391 126 5456ft 109kts
23-Mar-17 09:57 33.571607 -118.095104 126 5460ft 112kts
23-Mar-17 09:58 33.551272 -118.064363 126 5456ft 120kts
23-Mar-17 09:59 33.530468 -118.032937 126 5455ft 120kts
23-Mar-17 10:00 33.515775 -117.997796 107 5456ft 119kts
23-Mar-17 10:01 33.501980 -117.961740 118 5455ft 120kts
23-Mar-17 10:02 33.483032 -117.928600 124 5455ft 120kts
23-Mar-17 10:03 33.462379 -117.897006 126 5455ft 120kts
23-Mar-17 10:04 33.441227 -117.865795 127 5455ft 121kts
23-Mar-17 10:05 33.419946 -117.834698 127 5456ft 121kts
23-Mar-17 10:06 33.398583 -117.803552 127 5457ft 121kts
23-Mar-17 10:07 33.377295 -117.772510 128 5477ft 122kts
23-Mar-17 10:08 33.355693 -117.741096 127 5478ft 122kts
23-Mar-17 10:09 33.334031 -117.709564 127 5479ft 122kts
23-Mar-17 10:10 33.312493 -117.678217 127 5480ft 121kts
23-Mar-17 10:11 33.291067 -117.647028 127 5480ft 121kts
23-Mar-17 10:12 33.269748 -117.616000 127 5453ft 123kts
23-Mar-17 10:13 33.248189 -117.584638 127 5252ft 118kts
23-Mar-17 10:14 33.227474 -117.554490 127 5053ft 116kts
23-Mar-17 10:15 33.206748 -117.524323 127 4861ft 119kts
23-Mar-17 10:16 33.185258 -117.493051 127 4583ft 123kts
23-Mar-17 10:17 33.163734 -117.461715 127 4289ft 122kts
23-Mar-17 10:18 33.142320 -117.430565 127 3994ft 121kts
23-Mar-17 10:19 33.120788 -117.399830 128 3698ft 120kts
23-Mar-17 10:20 33.099650 -117.369271 127 3401ft 119kts
23-Mar-17 10:21 33.080329 -117.341171 128 3378ft 107kts
23-Mar-17 10:22 33.061043 -117.313112 128 3401ft 112kts
23-Mar-17 10:23 33.040698 -117.283522 127 3329ft 115kts
23-Mar-17 10:24 33.020558 -117.254216 127 3331ft 113kts
23-Mar-17 10:25 32.999968 -117.226412 158 3330ft 113kts
23-Mar-17 10:26 32.969060 -117.221434 176 3336ft 113kts
23-Mar-17 10:27 32.937915 -117.217159 177 3339ft 113kts
23-Mar-17 10:28 32.906233 -117.212863 177 3124ft 128kts
23-Mar-17 10:29 32.868976 -117.211805 190 2155ft 139kts
23-Mar-17 10:30 32.831033 -117.216614 192 1249ft 120kts
23-Mar-17 10:31 32.802125 -117.221522 193 1278ft 102kts
23-Mar-17 10:32 32.788137 -117.214466 355 1261ft 104kts
23-Mar-17 10:33 32.811174 -117.222270 247 1273ft 93kts
23-Mar-17 10:34 32.784796 -117.223577 179 1310ft 100kts
23-Mar-17 10:35 32.759022 -117.208485 157 970ft 97kts
23-Mar-17 10:36 32.747396 -117.187835 88 980ft 88kts
23-Mar-17 10:37 32.745923 -117.161073 96 1005ft 83kts
23-Mar-17 10:38 32.738391 -117.142255 192 728ft 63kts
23-Mar-17 10:39 32.729850 -117.156657 250 562ft 54kts
23-Mar-17 10:40 32.729818 -117.174039 283 163ft 52kts
23-Mar-17 10:41 32.732592 -117.181896 355 15ft 0kts

Navigation Log

Ident Type
Flight plan parsing failed, navigation log unavailable